Time,TemperatureF,DewpointF,PressureIn,WindDirection,WindDirectionDegrees,WindSpeedMPH,WindSpeedGustMPH,Humidity,HourlyPrecipIn,Conditions,Clouds,dailyrainin,SoftwareType,DateUTC
2013-03-16 00:00:00,38.9,30.6,29.80,West,268,1.0,1.0,72,0.00,,,0.00,Wunderground v.1.15,2013-03-16 04:00:00,
2013-03-16 00:05:00,38.6,30.7,29.80,West,268,1.0,1.0,73,0.00,,,0.00,Wunderground v.1.15,2013-03-16 04:05:00,
2013-03-16 00:10:00,38.6,30.4,29.80,West,268,1.0,1.0,72,0.00,,,0.00,Wunderground v.1.15,2013-03-16 04:10:00,
2013-03-16 00:15:00,38.9,30.6,29.80,West,268,1.0,1.0,72,0.00,,,0.00,Wunderground v.1.15,2013-03-16 04:15:00,
2013-03-16 00:20:00,39.5,30.9,29.80,West,268,0.0,0.0,71,0.00,,,0.00,Wunderground v.1.15,2013-03-16 04:20:00,
2013-03-16 00:30:00,40.2,30.8,29.79,West,268,1.0,1.0,69,0.00,,,0.00,Wunderground v.1.15,2013-03-16 04:30:00,
2013-03-16 00:40:00,40.5,30.8,29.79,West,268,1.0,2.0,68,0.00,,,0.00,Wunderground v.1.15,2013-03-16 04:40:00,
2013-03-16 00:45:00,40.2,30.8,29.79,West,268,2.0,2.0,69,0.00,,,0.00,Wunderground v.1.15,2013-03-16 04:45:00,
2013-03-16 00:50:00,39.9,30.9,29.79,West,268,2.0,2.0,70,0.00,,,0.00,Wunderground v.1.15,2013-03-16 04:50:00,
2013-03-16 01:05:00,40.5,30.8,29.79,West,268,0.0,0.0,68,0.00,,,0.00,Wunderground v.1.15,2013-03-16 05:05:00,
2013-03-16 01:10:00,39.8,30.8,29.79,West,268,0.0,2.0,70,0.00,,,0.00,Wunderground v.1.15,2013-03-16 05:10:00,
2013-03-16 01:20:00,39.3,31.0,29.79,West,268,1.0,1.0,72,0.00,,,0.00,Wunderground v.1.15,2013-03-16 05:20:00,
2013-03-16 01:25:00,39.3,31.0,29.79,West,268,1.0,1.0,72,0.00,,,0.00,Wunderground v.1.15,2013-03-16 05:25:00,
2013-03-16 01:35:00,38.2,30.6,29.80,West,268,2.0,3.0,74,0.00,,,0.00,Wunderground v.1.15,2013-03-16 05:35:00,
2013-03-16 01:40:00,37.9,30.7,29.80,West,268,2.0,2.0,75,0.00,,,0.00,Wunderground v.1.15,2013-03-16 05:40:00,
2013-03-16 01:46:00,37.8,30.9,29.80,West,268,2.0,2.0,76,0.00,,,0.00,Wunderground v.1.15,2013-03-16 05:46:00,
2013-03-16 01:55:00,37.5,30.9,29.80,West,268,1.0,1.0,77,0.00,,,0.00,Wunderground v.1.15,2013-03-16 05:55:00,
2013-03-16 02:00:00,37.9,31.3,29.80,West,268,1.0,2.0,77,0.00,,,0.00,Wunderground v.1.15,2013-03-16 06:00:00,
2013-03-16 02:10:00,38.8,31.6,29.80,West,268,2.0,2.0,75,0.00,,,0.00,Wunderground v.1.15,2013-03-16 06:10:00,
2013-03-16 02:20:00,39.6,31.7,29.80,West,268,2.0,3.0,73,0.00,,,0.00,Wunderground v.1.15,2013-03-16 06:20:00,
2013-03-16 02:30:00,38.8,31.6,29.81,West,268,1.0,1.0,75,0.00,,,0.00,Wunderground v.1.15,2013-03-16 06:30:00,
2013-03-16 02:40:00,39.3,32.0,29.81,West,278,3.0,4.0,75,0.00,,,0.00,Wunderground v.1.15,2013-03-16 06:40:00,
2013-03-16 02:45:00,40.1,31.8,29.81,NW,311,4.0,4.0,72,0.00,,,0.00,Wunderground v.1.15,2013-03-16 06:45:00,
2013-03-16 02:55:00,41.1,31.7,29.81,NNE,32,4.0,4.0,69,0.00,,,0.00,Wunderground v.1.15,2013-03-16 06:55:00,
2013-03-16 03:05:00,41.2,31.8,29.81,NNE,32,1.0,2.0,69,0.00,,,0.00,Wunderground v.1.15,2013-03-16 07:05:00,
2013-03-16 03:10:00,41.2,31.8,29.80,NNE,32,1.0,1.0,69,0.00,,,0.00,Wunderground v.1.15,2013-03-16 07:10:00,
2013-03-16 03:15:00,41.2,31.8,29.80,NNE,32,1.0,1.0,69,0.00,,,0.00,Wunderground v.1.15,2013-03-16 07:15:00,
2013-03-16 03:25:00,41.2,32.2,29.80,NNE,32,2.0,2.0,70,0.00,,,0.00,Wunderground v.1.15,2013-03-16 07:25:00,
2013-03-16 03:30:00,41.2,32.2,29.80,NNE,32,2.0,2.0,70,0.00,,,0.00,Wunderground v.1.15,2013-03-16 07:30:00,
2013-03-16 03:35:00,41.2,32.2,29.80,NNE,32,1.0,2.0,70,0.00,,,0.00,Wunderground v.1.15,2013-03-16 07:35:00,
2013-03-16 03:45:00,41.2,32.2,29.80,NNE,32,2.0,3.0,70,0.00,,,0.00,Wunderground v.1.15,2013-03-16 07:45:00,
2013-03-16 03:55:00,41.2,32.2,29.80,NNE,32,1.0,2.0,70,0.00,,,0.00,Wunderground v.1.15,2013-03-16 07:55:00,
2013-03-16 04:00:00,41.2,32.2,29.79,NNE,32,1.0,1.0,70,0.00,,,0.00,Wunderground v.1.15,2013-03-16 08:00:00,
2013-03-16 04:10:00,41.1,32.4,29.79,NNE,32,1.0,1.0,71,0.00,,,0.00,Wunderground v.1.15,2013-03-16 08:10:00,
2013-03-16 04:20:00,40.9,32.2,29.78,NNE,32,0.0,1.0,71,0.00,,,0.00,Wunderground v.1.15,2013-03-16 08:20:00,
2013-03-16 04:25:00,40.9,32.2,29.78,NNE,32,0.0,1.0,71,0.00,,,0.00,Wunderground v.1.15,2013-03-16 08:25:00,
2013-03-16 04:35:00,40.9,32.2,29.78,NNE,32,1.0,2.0,71,0.00,,,0.00,Wunderground v.1.15,2013-03-16 08:35:00,
2013-03-16 04:40:00,41.1,32.4,29.78,NNE,32,1.0,1.0,71,0.00,,,0.00,Wunderground v.1.15,2013-03-16 08:40:00,
2013-03-16 04:50:00,41.3,32.6,29.78,NNE,32,1.0,3.0,71,0.00,,,0.00,Wunderground v.1.15,2013-03-16 08:50:00,
2013-03-16 04:55:00,41.3,32.6,29.77,NNE,32,1.0,3.0,71,0.00,,,0.00,Wunderground v.1.15,2013-03-16 08:55:00,
2013-03-16 05:01:00,41.3,32.6,29.77,NNE,32,1.0,1.0,71,0.00,,,0.00,Wunderground v.1.15,2013-03-16 09:01:00,
2013-03-16 05:10:00,41.3,32.6,29.77,NNE,32,2.0,2.0,71,0.00,,,0.00,Wunderground v.1.15,2013-03-16 09:10:00,
2013-03-16 05:16:00,41.3,33.0,29.77,NNE,32,2.0,4.0,72,0.00,,,0.00,Wunderground v.1.15,2013-03-16 09:16:00,
2013-03-16 05:25:00,41.5,33.1,29.77,NNE,24,4.0,6.0,72,0.00,,,0.00,Wunderground v.1.15,2013-03-16 09:25:00,
2013-03-16 05:31:00,41.6,33.2,29.77,NNE,24,4.0,5.0,72,0.00,,,0.00,Wunderground v.1.15,2013-03-16 09:31:00,
2013-03-16 05:40:00,41.6,33.2,29.78,NNE,15,4.0,4.0,72,0.00,,,0.00,Wunderground v.1.15,2013-03-16 09:40:00,
2013-03-16 05:45:00,41.6,33.2,29.78,North,9,4.0,6.0,72,0.00,,,0.00,Wunderground v.1.15,2013-03-16 09:45:00,
2013-03-16 05:50:00,41.6,33.2,29.78,NE,36,5.0,5.0,72,0.00,,,0.00,Wunderground v.1.15,2013-03-16 09:50:00,
2013-03-16 06:00:00,41.6,33.6,29.78,NNE,23,5.0,6.0,73,0.00,,,0.00,Wunderground v.1.15,2013-03-16 10:00:00,
2013-03-16 06:05:00,41.6,33.6,29.78,NNE,18,5.0,6.0,73,0.00,,,0.00,Wunderground v.1.15,2013-03-16 10:05:00,
2013-03-16 06:15:00,41.5,33.8,29.78,NNE,32,5.0,7.0,74,0.00,,,0.00,Wunderground v.1.15,2013-03-16 10:15:00,
2013-03-16 06:25:00,41.3,33.6,29.78,North,5,5.0,5.0,74,0.00,,,0.00,Wunderground v.1.15,2013-03-16 10:25:00,
2013-03-16 06:35:00,41.1,33.8,29.78,NNE,16,3.0,4.0,75,0.00,,,0.00,Wunderground v.1.15,2013-03-16 10:35:00,
2013-03-16 06:40:00,41.1,33.8,29.78,NNE,16,3.0,3.0,75,0.00,,,0.00,Wunderground v.1.15,2013-03-16 10:40:00,
2013-03-16 06:46:00,41.1,33.8,29.78,NNE,16,3.0,3.0,75,0.00,,,0.00,Wunderground v.1.15,2013-03-16 10:46:00,
2013-03-16 06:55:00,41.1,33.8,29.78,NNE,16,3.0,5.0,75,0.00,,,0.00,Wunderground v.1.15,2013-03-16 10:55:00,
2013-03-16 07:00:00,41.1,33.8,29.78,NNE,16,3.0,3.0,75,0.00,,,0.00,Wunderground v.1.15,2013-03-16 11:00:00,
2013-03-16 07:10:00,41.1,33.8,29.78,NNE,16,2.0,2.0,75,0.00,,,0.00,Wunderground v.1.15,2013-03-16 11:10:00,
2013-03-16 07:16:00,41.1,33.8,29.78,NNE,16,2.0,2.0,75,0.00,,,0.00,Wunderground v.1.15,2013-03-16 11:16:00,
2013-03-16 07:25:00,41.1,33.4,29.78,NNW,348,2.0,2.0,74,0.00,,,0.00,Wunderground v.1.15,2013-03-16 11:25:00,
2013-03-16 07:30:00,41.1,33.4,29.78,NNW,348,2.0,2.0,74,0.00,,,0.00,Wunderground v.1.15,2013-03-16 11:30:00,
2013-03-16 07:40:00,40.9,33.2,29.78,NNW,348,1.0,1.0,74,0.00,,,0.00,Wunderground v.1.15,2013-03-16 11:40:00,
2013-03-16 07:45:00,40.9,32.9,29.78,NNW,348,1.0,3.0,73,0.00,,,0.00,Wunderground v.1.15,2013-03-16 11:45:00,
2013-03-16 07:55:00,40.9,33.2,29.79,NNW,334,3.0,5.0,74,0.00,,,0.00,Wunderground v.1.15,2013-03-16 11:55:00,
2013-03-16 08:05:00,40.9,33.2,29.80,NW,320,3.0,3.0,74,0.00,,,0.00,Wunderground v.1.15,2013-03-16 12:05:00,
2013-03-16 08:10:00,41.1,33.4,29.79,NW,320,3.0,4.0,74,0.00,,,0.00,Wunderground v.1.15,2013-03-16 12:10:00,
2013-03-16 08:15:00,40.9,33.6,29.79,NW,320,3.0,3.0,75,0.00,,,0.00,Wunderground v.1.15,2013-03-16 12:15:00,
2013-03-16 08:25:00,40.8,34.1,29.78,NW,321,3.0,3.0,77,0.00,,,0.00,Wunderground v.1.15,2013-03-16 12:25:00,
2013-03-16 08:31:00,40.6,34.0,29.78,NNW,327,3.0,3.0,77,0.00,,,0.00,Wunderground v.1.15,2013-03-16 12:31:00,
2013-03-16 08:40:00,40.6,34.3,29.79,NNW,331,2.0,4.0,78,0.00,,,0.00,Wunderground v.1.15,2013-03-16 12:40:00,
2013-03-16 08:50:00,40.5,34.5,29.78,NNW,331,0.0,1.0,79,0.00,,,0.00,Wunderground v.1.15,2013-03-16 12:50:00,
2013-03-16 09:00:00,40.8,34.8,29.78,NNW,331,0.0,0.0,79,0.00,,,0.00,Wunderground v.1.15,2013-03-16 13:00:00,
2013-03-16 09:10:00,40.9,35.2,29.78,NNW,331,1.0,1.0,80,0.00,,,0.00,Wunderground v.1.15,2013-03-16 13:10:00,
2013-03-16 09:16:00,40.9,34.9,29.77,NNW,331,1.0,1.0,79,0.00,,,0.00,Wunderground v.1.15,2013-03-16 13:16:00,
2013-03-16 09:25:00,40.9,34.9,29.78,NNW,331,0.0,1.0,79,0.00,,,0.00,Wunderground v.1.15,2013-03-16 13:25:00,
2013-03-16 09:30:00,40.9,34.6,29.78,NNW,331,0.0,0.0,78,0.00,,,0.00,Wunderground v.1.15,2013-03-16 13:30:00,
2013-03-16 09:40:00,41.3,35.6,29.77,NNW,331,0.0,1.0,80,0.00,,,0.00,Wunderground v.1.15,2013-03-16 13:40:00,
2013-03-16 09:45:00,41.3,35.6,29.77,NNW,331,0.0,1.0,80,0.00,,,0.00,Wunderground v.1.15,2013-03-16 13:45:00,
2013-03-16 09:55:00,41.3,35.6,29.77,NNW,331,1.0,2.0,80,0.00,,,0.00,Wunderground v.1.15,2013-03-16 13:55:00,
2013-03-16 10:00:00,41.3,35.6,29.76,NNW,331,2.0,5.0,80,0.00,,,0.00,Wunderground v.1.15,2013-03-16 14:00:00,
2013-03-16 10:05:00,41.5,35.8,29.76,North,355,3.0,5.0,80,0.00,,,0.00,Wunderground v.1.15,2013-03-16 14:05:00,
2013-03-16 10:15:00,41.9,35.9,29.75,NNE,26,2.0,3.0,79,0.00,,,0.00,Wunderground v.1.15,2013-03-16 14:15:00,
2013-03-16 10:25:00,42.3,34.9,29.76,NNE,26,1.0,2.0,75,0.00,,,0.00,Wunderground v.1.15,2013-03-16 14:25:00,
2013-03-16 10:30:00,42.5,35.5,29.76,NNE,26,2.0,4.0,76,0.00,,,0.00,Wunderground v.1.15,2013-03-16 14:30:00,
2013-03-16 10:35:00,42.5,35.8,29.77,NNE,16,4.0,4.0,77,0.00,,,0.00,Wunderground v.1.15,2013-03-16 14:35:00,
2013-03-16 10:40:00,42.2,35.8,29.76,North,5,6.0,6.0,78,0.00,,,0.00,Wunderground v.1.15,2013-03-16 14:40:00,
2013-03-16 10:50:00,42.1,35.4,29.75,NNE,25,4.0,4.0,77,0.00,,,0.00,Wunderground v.1.15,2013-03-16 14:50:00,
2013-03-16 10:55:00,41.9,34.9,29.76,North,5,5.0,6.0,76,0.00,,,0.00,Wunderground v.1.15,2013-03-16 14:55:00,
2013-03-16 11:00:00,41.9,34.9,29.75,North,5,4.0,4.0,76,0.00,,,0.00,Wunderground v.1.15,2013-03-16 15:00:00,
2013-03-16 11:10:00,42.1,34.7,29.76,NNE,13,5.0,5.0,75,0.00,,,0.00,Wunderground v.1.15,2013-03-16 15:10:00,
2013-03-16 11:15:00,42.1,34.7,29.75,NNE,14,4.0,5.0,75,0.00,,,0.00,Wunderground v.1.15,2013-03-16 15:15:00,
2013-03-16 11:25:00,42.5,35.1,29.74,ENE,72,3.0,4.0,75,0.00,,,0.00,Wunderground v.1.15,2013-03-16 15:25:00,
2013-03-16 11:35:00,43.3,35.6,29.72,East,95,4.0,6.0,74,0.00,,,0.00,Wunderground v.1.15,2013-03-16 15:35:00,
2013-03-16 11:40:00,43.8,35.4,29.72,East,95,3.0,3.0,72,0.00,,,0.00,Wunderground v.1.15,2013-03-16 15:40:00,
2013-03-16 11:45:00,44.1,35.6,29.72,East,95,2.0,5.0,72,0.00,,,0.00,Wunderground v.1.15,2013-03-16 15:45:00,
2013-03-16 11:50:00,44.4,35.6,29.71,South,175,2.0,5.0,71,0.00,,,0.00,Wunderground v.1.15,2013-03-16 15:50:00,
2013-03-16 12:00:00,45.1,34.4,29.71,SSE,153,5.0,5.0,66,0.00,,,0.00,Wunderground v.1.15,2013-03-16 16:00:00,
2013-03-16 12:05:00,45.1,34.0,29.71,SE,133,3.0,5.0,65,0.00,,,0.00,Wunderground v.1.15,2013-03-16 16:05:00,
2013-03-16 12:15:00,45.2,34.9,29.70,SSE,164,4.0,7.0,67,0.00,,,0.00,Wunderground v.1.15,2013-03-16 16:15:00,
2013-03-16 12:25:00,45.4,35.8,29.71,East,101,3.0,4.0,69,0.00,,,0.00,Wunderground v.1.15,2013-03-16 16:25:00,
2013-03-16 12:35:00,45.1,35.5,29.70,SSE,150,5.0,7.0,69,0.00,,,0.00,Wunderground v.1.15,2013-03-16 16:35:00,
2013-03-16 12:40:00,45.1,35.9,29.71,South,180,4.0,4.0,70,0.00,,,0.00,Wunderground v.1.15,2013-03-16 16:40:00,
2013-03-16 12:50:00,44.8,36.3,29.69,SSE,163,4.0,7.0,72,0.00,,,0.01,Wunderground v.1.15,2013-03-16 16:50:00,
2013-03-16 12:55:00,44.5,37.7,29.68,ESE,123,5.0,7.0,77,0.07,,,0.02,Wunderground v.1.15,2013-03-16 16:55:00,
2013-03-16 13:05:00,44.5,38.1,29.68,SSE,160,3.0,5.0,78,0.06,,,0.02,Wunderground v.1.15,2013-03-16 17:05:00,
2013-03-16 13:10:00,44.5,37.7,29.69,East,88,3.0,6.0,77,0.04,,,0.02,Wunderground v.1.15,2013-03-16 17:10:00,
2013-03-16 13:15:00,44.2,37.1,29.69,ENE,78,3.0,6.0,76,0.00,,,0.02,Wunderground v.1.15,2013-03-16 17:15:00,
2013-03-16 13:25:00,43.9,38.1,29.68,ENE,78,1.0,4.0,80,0.00,,,0.02,Wunderground v.1.15,2013-03-16 17:25:00,
2013-03-16 13:30:00,43.9,38.1,29.68,ENE,78,2.0,2.0,80,0.00,,,0.02,Wunderground v.1.15,2013-03-16 17:30:00,
2013-03-16 13:40:00,44.1,38.0,29.68,ENE,65,3.0,3.0,79,0.00,,,0.02,Wunderground v.1.15,2013-03-16 17:40:00,
2013-03-16 13:45:00,44.1,38.3,29.67,ENE,65,2.0,3.0,80,0.00,,,0.03,Wunderground v.1.15,2013-03-16 17:45:00,
2013-03-16 13:50:00,44.1,39.0,29.67,NNE,13,2.0,7.0,82,0.00,,,0.03,Wunderground v.1.15,2013-03-16 17:50:00,
2013-03-16 14:00:00,43.1,38.9,29.67,NNE,21,3.0,3.0,85,0.00,,,0.03,Wunderground v.1.15,2013-03-16 18:00:00,
2013-03-16 14:05:00,42.6,38.4,29.67,NNE,19,4.0,5.0,85,0.00,,,0.03,Wunderground v.1.15,2013-03-16 18:05:00,
2013-03-16 14:15:00,42.2,38.6,29.66,NE,42,5.0,6.0,87,0.00,,,0.04,Wunderground v.1.15,2013-03-16 18:15:00,
2013-03-16 14:20:00,42.3,38.7,29.66,ENE,65,5.0,6.0,87,0.00,,,0.04,Wunderground v.1.15,2013-03-16 18:20:00,
2013-03-16 14:25:00,42.3,38.4,29.66,ENE,71,5.0,9.0,86,0.00,,,0.04,Wunderground v.1.15,2013-03-16 18:25:00,
2013-03-16 14:30:00,42.2,38.3,29.66,North,5,5.0,5.0,86,0.00,,,0.04,Wunderground v.1.15,2013-03-16 18:30:00,
2013-03-16 14:40:00,41.3,37.1,29.67,North,5,7.0,7.0,85,0.00,,,0.04,Wunderground v.1.15,2013-03-16 18:40:00,
2013-03-16 14:46:00,40.6,36.4,29.67,NNE,12,9.0,9.0,85,0.00,,,0.04,Wunderground v.1.15,2013-03-16 18:46:00,
2013-03-16 14:55:00,39.8,36.2,29.68,North,350,9.0,9.0,87,0.00,,,0.04,Wunderground v.1.15,2013-03-16 18:55:00,
2013-03-16 15:05:00,39.1,35.6,29.68,North,5,11.0,15.0,87,0.00,,,0.04,Wunderground v.1.15,2013-03-16 19:05:00,
2013-03-16 15:10:00,38.8,35.3,29.68,North,355,12.0,18.0,87,0.00,,,0.04,Wunderground v.1.15,2013-03-16 19:10:00,
2013-03-16 15:15:00,38.6,35.1,29.68,NE,39,12.0,18.0,87,0.00,,,0.04,Wunderground v.1.15,2013-03-16 19:15:00,
2013-03-16 15:25:00,38.3,34.5,29.68,NE,42,9.0,11.0,86,0.00,,,0.04,Wunderground v.1.15,2013-03-16 19:25:00,
2013-03-16 15:30:00,38.3,34.8,29.69,NNE,22,10.0,10.0,87,0.00,,,0.04,Wunderground v.1.15,2013-03-16 19:30:00,
2013-03-16 15:41:00,37.9,34.4,29.68,NNE,28,9.0,9.0,87,0.00,,,0.04,Wunderground v.1.15,2013-03-16 19:41:00,
2013-03-16 15:50:00,37.6,34.1,29.68,NNE,22,9.0,10.0,87,0.00,,,0.04,Wunderground v.1.15,2013-03-16 19:50:00,
2013-03-16 15:55:00,37.3,33.5,29.68,NNE,21,10.0,15.0,86,0.00,,,0.04,Wunderground v.1.15,2013-03-16 19:55:00,
2013-03-16 16:05:00,37.2,33.4,29.68,North,355,10.0,10.0,86,0.00,,,0.04,Wunderground v.1.15,2013-03-16 20:05:00,
2013-03-16 16:10:00,37.2,33.7,29.68,NNE,32,11.0,11.0,87,0.00,,,0.04,Wunderground v.1.15,2013-03-16 20:10:00,
2013-03-16 16:20:00,36.9,33.4,29.69,NNE,24,11.0,14.0,87,0.00,,,0.04,Wunderground v.1.15,2013-03-16 20:20:00,
2013-03-16 16:25:00,36.8,33.6,29.69,NE,39,11.0,14.0,88,0.00,,,0.04,Wunderground v.1.15,2013-03-16 20:25:00,
2013-03-16 16:31:00,36.6,33.1,29.69,NNE,24,9.0,9.0,87,0.00,,,0.04,Wunderground v.1.15,2013-03-16 20:31:00,
2013-03-16 16:40:00,36.6,33.4,29.70,NE,40,9.0,9.0,88,0.00,,,0.04,Wunderground v.1.15,2013-03-16 20:40:00,
2013-03-16 16:50:00,36.5,33.3,29.70,North,355,10.0,10.0,88,0.00,,,0.04,Wunderground v.1.15,2013-03-16 20:50:00,
2013-03-16 17:00:00,36.5,33.3,29.70,NNE,12,7.0,7.0,88,0.00,,,0.04,Wunderground v.1.15,2013-03-16 21:00:00,
2013-03-16 17:05:00,36.6,33.4,29.71,NE,54,6.0,8.0,88,0.00,,,0.04,Wunderground v.1.15,2013-03-16 21:05:00,
2013-03-16 17:10:00,36.5,33.0,29.72,NNE,27,7.0,9.0,87,0.00,,,0.04,Wunderground v.1.15,2013-03-16 21:10:00,
2013-03-16 17:16:00,36.5,33.0,29.72,ENE,65,8.0,9.0,87,0.00,,,0.04,Wunderground v.1.15,2013-03-16 21:16:00,
2013-03-16 17:25:00,36.2,32.7,29.72,NNE,19,8.0,8.0,87,0.00,,,0.04,Wunderground v.1.15,2013-03-16 21:25:00,
2013-03-16 17:35:00,36.2,33.0,29.73,NNE,28,6.0,6.0,88,0.00,,,0.04,Wunderground v.1.15,2013-03-16 21:35:00,
2013-03-16 17:46:00,36.0,33.4,29.73,NNE,19,6.0,10.0,90,0.00,,,0.04,Wunderground v.1.15,2013-03-16 21:46:00,
2013-03-16 17:55:00,35.6,33.2,29.74,North,5,7.0,8.0,91,0.00,,,0.04,Wunderground v.1.15,2013-03-16 21:55:00,
2013-03-16 18:05:00,35.2,32.8,29.74,NE,54,7.0,10.0,91,0.00,,,0.04,Wunderground v.1.15,2013-03-16 22:05:00,
2013-03-16 18:10:00,35.0,32.9,29.74,North,5,8.0,10.0,92,0.00,,,0.04,Wunderground v.1.15,2013-03-16 22:10:00,
2013-03-16 18:16:00,34.9,32.8,29.75,North,9,8.0,8.0,92,0.00,,,0.04,Wunderground v.1.15,2013-03-16 22:16:00,
2013-03-16 18:25:00,34.9,33.1,29.75,North,355,8.0,8.0,93,0.00,,,0.04,Wunderground v.1.15,2013-03-16 22:25:00,
2013-03-16 18:35:00,34.9,33.1,29.75,North,5,8.0,13.0,93,0.00,,,0.04,Wunderground v.1.15,2013-03-16 22:35:00,
2013-03-16 18:40:00,34.9,32.8,29.76,North,5,8.0,13.0,92,0.00,,,0.04,Wunderground v.1.15,2013-03-16 22:40:00,
2013-03-16 18:50:00,34.8,32.7,29.76,NNW,341,7.0,8.0,92,0.00,,,0.04,Wunderground v.1.15,2013-03-16 22:50:00,
2013-03-16 18:55:00,34.6,32.5,29.77,NNW,346,6.0,8.0,92,0.00,,,0.04,Wunderground v.1.15,2013-03-16 22:55:00,
2013-03-16 19:00:00,34.5,32.4,29.77,NNW,345,6.0,6.0,92,0.00,,,0.04,Wunderground v.1.15,2013-03-16 23:00:00,
2013-03-16 19:10:00,34.5,32.4,29.78,North,349,7.0,7.0,92,0.00,,,0.04,Wunderground v.1.15,2013-03-16 23:10:00,
2013-03-16 19:20:00,34.3,32.2,29.78,NNE,24,7.0,8.0,92,0.00,,,0.04,Wunderground v.1.15,2013-03-16 23:20:00,
2013-03-16 19:30:00,34.3,32.2,29.79,NNE,21,7.0,7.0,92,0.00,,,0.04,Wunderground v.1.15,2013-03-16 23:30:00,
2013-03-16 19:40:00,34.3,32.2,29.79,North,5,8.0,9.0,92,0.00,,,0.04,Wunderground v.1.15,2013-03-16 23:40:00,
2013-03-16 19:51:00,34.2,32.1,29.80,North,351,7.0,7.0,92,0.00,,,0.04,Wunderground v.1.15,2013-03-16 23:51:00,
2013-03-16 20:00:00,34.2,32.1,29.81,North,360,5.0,5.0,92,0.00,,,0.04,Wunderground v.1.15,2013-03-17 00:00:00,
2013-03-16 20:05:00,34.3,32.2,29.82,NNW,331,5.0,5.0,92,0.00,,,0.04,Wunderground v.1.15,2013-03-17 00:05:00,
2013-03-16 20:10:00,34.3,32.2,29.82,North,355,5.0,9.0,92,0.00,,,0.04,Wunderground v.1.15,2013-03-17 00:10:00,
2013-03-16 20:20:00,34.0,31.9,29.83,NNW,344,8.0,8.0,92,0.00,,,0.04,Wunderground v.1.15,2013-03-17 00:20:00,
2013-03-16 20:30:00,34.2,32.1,29.84,North,5,5.0,9.0,92,0.00,,,0.04,Wunderground v.1.15,2013-03-17 00:30:00,
2013-03-16 20:40:00,34.0,31.6,29.84,NNE,20,6.0,6.0,91,0.00,,,0.04,Wunderground v.1.15,2013-03-17 00:40:00,
2013-03-16 20:50:00,34.0,31.9,29.85,North,360,7.0,7.0,92,0.00,,,0.04,Wunderground v.1.15,2013-03-17 00:50:00,
2013-03-16 20:55:00,34.0,31.9,29.86,NNE,30,6.0,11.0,92,0.00,,,0.04,Wunderground v.1.15,2013-03-17 00:55:00,
2013-03-16 21:05:00,33.9,31.8,29.87,North,11,8.0,8.0,92,0.00,,,0.04,Wunderground v.1.15,2013-03-17 01:05:00,
2013-03-16 21:10:00,33.9,31.8,29.87,NNE,16,8.0,8.0,92,0.00,,,0.04,Wunderground v.1.15,2013-03-17 01:10:00,
2013-03-16 21:20:00,33.9,31.8,29.87,North,5,7.0,9.0,92,0.00,,,0.04,Wunderground v.1.15,2013-03-17 01:20:00,
2013-03-16 21:25:00,33.9,31.8,29.87,NNE,19,6.0,9.0,92,0.00,,,0.04,Wunderground v.1.15,2013-03-17 01:25:00,
2013-03-16 21:35:00,33.9,31.8,29.88,North,11,5.0,5.0,92,0.00,,,0.04,Wunderground v.1.15,2013-03-17 01:35:00,
2013-03-16 21:45:00,33.9,31.8,29.88,North,10,5.0,8.0,92,0.00,,,0.04,Wunderground v.1.15,2013-03-17 01:45:00,
2013-03-16 21:50:00,33.9,31.8,29.88,NNE,13,5.0,8.0,92,0.00,,,0.04,Wunderground v.1.15,2013-03-17 01:50:00,
2013-03-16 22:00:00,33.9,31.8,29.90,NNW,333,5.0,5.0,92,0.00,,,0.04,Wunderground v.1.15,2013-03-17 02:00:00,
2013-03-16 22:05:00,34.0,31.9,29.90,NNW,337,5.0,6.0,92,0.00,,,0.04,Wunderground v.1.15,2013-03-17 02:05:00,
2013-03-16 22:15:00,34.2,32.1,29.91,NNW,337,3.0,3.0,92,0.00,,,0.04,Wunderground v.1.15,2013-03-17 02:15:00,
2013-03-16 22:25:00,34.3,31.9,29.91,NNW,337,2.0,4.0,91,0.00,,,0.04,Wunderground v.1.15,2013-03-17 02:25:00,
2013-03-16 22:35:00,34.5,32.1,29.92,NNW,337,1.0,2.0,91,0.00,,,0.04,Wunderground v.1.15,2013-03-17 02:35:00,
2013-03-16 22:40:00,34.5,32.1,29.93,NNW,337,1.0,2.0,91,0.00,,,0.04,Wunderground v.1.15,2013-03-17 02:40:00,
2013-03-16 22:45:00,34.6,32.2,29.93,NNW,337,2.0,2.0,91,0.00,,,0.04,Wunderground v.1.15,2013-03-17 02:45:00,
2013-03-16 22:55:00,34.5,32.1,29.93,NNW,337,2.0,2.0,91,0.00,,,0.04,Wunderground v.1.15,2013-03-17 02:55:00,
2013-03-16 23:00:00,34.6,32.2,29.93,NNW,337,2.0,2.0,91,0.00,,,0.04,Wunderground v.1.15,2013-03-17 03:00:00,
2013-03-16 23:10:00,34.6,32.0,29.94,NNW,337,3.0,3.0,90,0.00,,,0.04,Wunderground v.1.15,2013-03-17 03:10:00,
2013-03-16 23:15:00,34.6,32.0,29.93,NNW,337,3.0,3.0,90,0.00,,,0.04,Wunderground v.1.15,2013-03-17 03:15:00,
2013-03-16 23:25:00,34.6,31.7,29.94,NNW,340,2.0,7.0,89,0.00,,,0.04,Wunderground v.1.15,2013-03-17 03:25:00,
2013-03-16 23:35:00,34.6,31.7,29.95,NNW,340,3.0,4.0,89,0.00,,,0.04,Wunderground v.1.15,2013-03-17 03:35:00,
2013-03-16 23:40:00,34.6,31.7,29.94,NNW,340,3.0,3.0,89,0.00,,,0.04,Wunderground v.1.15,2013-03-17 03:40:00,
2013-03-16 23:45:00,34.6,31.7,29.94,NNW,340,2.0,4.0,89,0.00,,,0.04,Wunderground v.1.15,2013-03-17 03:45:00,
2013-03-16 23:55:00,34.5,31.6,29.93,NNE,28,5.0,5.0,89,0.00,,,0.04,Wunderground v.1.15,2013-03-17 03:55:00,